Time,TemperatureF,DewpointF,PressureIn,WindDirection,WindDirectionDegrees,WindSpeedMPH,WindSpeedGustMPH,Humidity,HourlyPrecipIn,Conditions,Clouds,dailyrainin,SoftwareType,DateUTC
2013-02-02 00:00:00,44.7,40.8,24.80,WSW,253,0.0,0.0,86,0.00,,---,0.01,VWS V13.01,2013-02-02 08:00:00,
2013-02-02 00:06:00,44.7,40.8,24.80,North,0,0.0,0.0,86,0.00,,---,0.00,VWS V13.01,2013-02-02 08:06:00,
2013-02-02 00:11:00,44.5,40.6,24.80,WSW,254,0.0,0.0,86,0.00,,---,0.00,VWS V13.01,2013-02-02 08:11:00,
2013-02-02 00:16:00,44.4,40.5,24.80,WSW,253,0.0,0.0,86,0.00,,---,0.00,VWS V13.01,2013-02-02 08:16:00,
2013-02-02 00:21:00,44.3,40.4,24.80,WSW,253,0.0,0.0,86,0.00,,---,0.00,VWS V13.01,2013-02-02 08:21:00,
2013-02-02 00:26:00,44.3,40.7,24.80,WSW,254,0.0,0.0,87,0.00,,---,0.00,VWS V13.01,2013-02-02 08:26:00,
2013-02-02 00:31:00,44.3,40.7,24.80,WSW,254,0.0,0.0,87,0.00,,---,0.00,VWS V13.01,2013-02-02 08:31:00,
2013-02-02 00:36:00,44.4,40.8,24.80,WSW,253,0.0,0.0,87,0.00,,---,0.00,VWS V13.01,2013-02-02 08:36:00,
2013-02-02 00:41:00,44.4,40.8,24.80,WSW,254,0.0,0.0,87,0.00,,---,0.00,VWS V13.01,2013-02-02 08:41:00,
2013-02-02 00:46:00,44.3,40.7,24.80,WSW,254,0.0,0.0,87,0.00,,---,0.00,VWS V13.01,2013-02-02 08:46:00,
2013-02-02 00:51:00,44.2,40.6,24.80,WSW,254,0.0,0.0,87,0.00,,---,0.00,VWS V13.01,2013-02-02 08:51:00,
2013-02-02 00:56:00,44.0,40.4,24.80,WSW,254,0.0,0.0,87,0.00,,---,0.00,VWS V13.01,2013-02-02 08:56:00,
2013-02-02 01:01:00,44.0,40.4,24.80,WSW,253,0.0,0.0,87,0.00,,---,0.00,VWS V13.01,2013-02-02 09:01:00,
2013-02-02 01:06:00,43.9,40.3,24.80,WSW,254,0.0,0.0,87,0.01,,---,0.00,VWS V13.01,2013-02-02 09:06:00,
2013-02-02 01:11:00,43.9,40.3,24.80,WSW,254,0.0,0.0,87,0.01,,---,0.00,VWS V13.01,2013-02-02 09:11:00,
2013-02-02 01:15:00,43.8,40.2,24.80,WSW,254,0.0,0.0,87,0.01,,---,0.00,VWS V13.01,2013-02-02 09:15:00,
2013-02-02 01:20:00,44.0,40.7,24.80,WSW,254,0.0,0.0,88,0.01,,---,0.00,VWS V13.01,2013-02-02 09:20:00,
2013-02-02 01:25:00,44.0,40.7,24.80,WSW,253,0.0,0.0,88,0.01,,---,0.00,VWS V13.01,2013-02-02 09:25:00,
2013-02-02 01:30:00,43.9,40.6,24.80,WSW,254,0.0,0.0,88,0.01,,---,0.00,VWS V13.01,2013-02-02 09:30:00,
2013-02-02 01:35:00,43.8,40.5,24.80,WSW,254,0.0,0.0,88,0.01,,---,0.00,VWS V13.01,2013-02-02 09:35:00,
2013-02-02 01:40:00,43.8,40.5,24.80,WSW,254,0.0,0.0,88,0.01,,---,0.00,VWS V13.01,2013-02-02 09:40:00,
2013-02-02 01:45:00,43.7,40.1,24.80,WSW,254,0.0,0.0,87,0.01,,---,0.00,VWS V13.01,2013-02-02 09:45:00,
2013-02-02 01:50:00,43.6,40.3,24.80,WSW,253,0.0,0.0,88,0.01,,---,0.00,VWS V13.01,2013-02-02 09:50:00,
2013-02-02 01:55:00,43.6,40.3,24.80,WSW,253,0.0,0.0,88,0.01,,---,0.00,VWS V13.01,2013-02-02 09:55:00,
2013-02-02 02:00:00,43.6,40.3,24.80,WSW,254,0.0,0.0,88,0.01,,---,0.00,VWS V13.01,2013-02-02 10:00:00,
2013-02-02 02:05:00,43.7,40.4,24.80,WSW,254,0.0,0.0,88,0.00,,---,0.00,VWS V13.01,2013-02-02 10:05:00,
2013-02-02 02:10:00,43.6,40.3,24.80,WSW,253,0.0,0.0,88,0.00,,---,0.00,VWS V13.01,2013-02-02 10:10:00,
2013-02-02 02:15:00,43.5,40.2,24.80,WSW,253,0.0,0.0,88,0.00,,---,0.00,VWS V13.01,2013-02-02 10:15:00,
2013-02-02 02:20:00,43.6,40.3,24.80,WSW,254,0.0,0.0,88,0.00,,---,0.00,VWS V13.01,2013-02-02 10:20:00,
2013-02-02 02:25:00,43.8,40.8,24.80,WSW,254,0.0,0.0,89,0.00,,---,0.00,VWS V13.01,2013-02-02 10:25:00,
2013-02-02 02:30:00,43.7,40.4,24.80,WSW,254,0.0,0.0,88,0.00,,---,0.00,VWS V13.01,2013-02-02 10:30:00,
2013-02-02 02:35:00,43.6,40.3,24.80,WSW,253,0.0,0.0,88,0.00,,---,0.00,VWS V13.01,2013-02-02 10:35:00,
2013-02-02 02:40:00,43.6,40.3,24.80,WSW,253,0.0,0.0,88,0.00,,---,0.00,VWS V13.01,2013-02-02 10:40:00,
2013-02-02 02:45:00,43.4,40.1,24.80,WSW,254,0.0,0.0,88,0.00,,---,0.00,VWS V13.01,2013-02-02 10:45:00,
2013-02-02 02:50:00,43.3,40.0,24.80,WSW,254,0.0,0.0,88,0.00,,---,0.00,VWS V13.01,2013-02-02 10:50:00,
2013-02-02 02:55:00,43.3,40.0,24.80,WSW,253,0.0,0.0,88,0.00,,---,0.00,VWS V13.01,2013-02-02 10:55:00,
2013-02-02 03:00:00,43.4,40.1,24.80,WSW,254,0.0,0.0,88,0.00,,---,0.00,VWS V13.01,2013-02-02 11:00:00,
2013-02-02 03:05:00,43.3,40.0,24.80,WSW,254,0.0,0.0,88,0.00,,---,0.00,VWS V13.01,2013-02-02 11:05:00,
2013-02-02 03:10:00,43.2,39.9,24.80,WSW,253,0.0,0.0,88,0.00,,---,0.00,VWS V13.01,2013-02-02 11:10:00,
2013-02-02 03:15:00,43.1,39.8,24.80,WSW,253,0.0,0.0,88,0.00,,---,0.00,VWS V13.01,2013-02-02 11:15:00,
2013-02-02 03:20:00,43.1,40.1,24.80,WSW,254,0.0,0.0,89,0.00,,---,0.00,VWS V13.01,2013-02-02 11:20:00,
2013-02-02 03:25:00,43.0,40.0,24.80,WSW,254,0.0,0.0,89,0.00,,---,0.00,VWS V13.01,2013-02-02 11:25:00,
2013-02-02 03:30:00,42.9,39.9,24.80,WSW,254,0.0,0.0,89,0.00,,---,0.00,VWS V13.01,2013-02-02 11:30:00,
2013-02-02 03:35:00,42.9,39.9,24.80,WSW,254,0.0,0.0,89,0.00,,---,0.00,VWS V13.01,2013-02-02 11:35:00,
2013-02-02 03:40:00,42.9,39.9,24.79,WSW,253,0.0,0.0,89,0.00,,---,0.00,VWS V13.01,2013-02-02 11:40:00,
2013-02-02 03:45:00,42.9,39.9,24.79,WSW,254,0.0,0.0,89,0.00,,---,0.00,VWS V13.01,2013-02-02 11:45:00,
2013-02-02 03:50:00,42.8,39.8,24.77,WSW,254,0.0,0.0,89,0.00,,---,0.00,VWS V13.01,2013-02-02 11:50:00,
2013-02-02 03:55:00,42.8,39.8,24.70,WSW,254,0.0,0.0,89,0.00,,---,0.00,VWS V13.01,2013-02-02 11:55:00,
2013-02-02 04:00:00,42.7,39.7,24.67,WSW,254,0.0,0.0,89,0.00,,---,0.00,VWS V13.01,2013-02-02 12:00:00,
2013-02-02 04:05:00,42.6,39.6,24.67,WSW,253,0.0,0.0,89,0.00,,---,0.00,VWS V13.01,2013-02-02 12:05:00,
2013-02-02 04:10:00,42.5,39.5,24.65,WSW,253,0.0,0.0,89,0.01,,---,0.01,VWS V13.01,2013-02-02 12:10:00,
2013-02-02 04:15:00,42.5,39.5,24.63,WSW,254,0.0,0.0,89,0.01,,---,0.01,VWS V13.01,2013-02-02 12:15:00,
2013-02-02 04:20:00,42.4,39.4,24.63,WSW,253,0.0,0.0,89,0.01,,---,0.01,VWS V13.01,2013-02-02 12:20:00,
2013-02-02 04:25:00,42.3,39.3,24.78,WSW,254,0.0,0.0,89,0.01,,---,0.01,VWS V13.01,2013-02-02 12:25:00,
2013-02-02 04:30:00,42.2,39.2,24.72,WSW,253,0.0,0.0,89,0.01,,---,0.01,VWS V13.01,2013-02-02 12:30:00,
2013-02-02 04:35:00,42.2,39.2,24.75,WSW,254,0.0,0.0,89,0.01,,---,0.01,VWS V13.01,2013-02-02 12:35:00,
2013-02-02 04:40:00,42.2,39.2,24.77,WSW,254,0.0,0.0,89,0.01,,---,0.01,VWS V13.01,2013-02-02 12:40:00,
2013-02-02 04:45:00,42.3,39.3,24.76,WSW,254,0.0,0.0,89,0.01,,---,0.01,VWS V13.01,2013-02-02 12:45:00,
2013-02-02 04:50:00,42.3,39.3,24.76,WSW,253,0.0,0.0,89,0.01,,---,0.01,VWS V13.01,2013-02-02 12:50:00,
2013-02-02 04:55:00,42.2,39.2,24.76,WSW,254,0.0,0.0,89,0.01,,---,0.01,VWS V13.01,2013-02-02 12:55:00,
2013-02-02 05:01:00,42.3,39.3,24.74,WSW,254,0.0,0.0,89,0.01,,---,0.01,VWS V13.01,2013-02-02 13:01:00,
2013-02-02 05:06:00,42.3,39.3,24.74,WSW,254,0.0,0.0,89,0.01,,---,0.01,VWS V13.01,2013-02-02 13:06:00,
2013-02-02 05:11:00,42.3,39.3,24.74,WSW,254,0.0,0.0,89,0.01,,---,0.01,VWS V13.01,2013-02-02 13:11:00,
2013-02-02 05:16:00,42.3,39.6,21.40,WSW,253,0.0,0.0,90,0.01,,---,0.01,VWS V13.01,2013-02-02 13:16:00,
2013-02-02 05:21:00,42.3,39.6,24.73,WSW,253,0.0,0.0,90,0.01,,---,0.01,VWS V13.01,2013-02-02 13:21:00,
2013-02-02 05:26:00,42.3,39.6,24.73,WSW,254,0.0,0.0,90,0.01,,---,0.01,VWS V13.01,2013-02-02 13:26:00,
2013-02-02 05:31:00,42.4,39.7,24.73,WSW,254,0.0,0.0,90,0.01,,---,0.01,VWS V13.01,2013-02-02 13:31:00,
2013-02-02 05:36:00,42.5,39.8,24.75,WSW,253,0.0,0.0,90,0.01,,---,0.01,VWS V13.01,2013-02-02 13:36:00,
2013-02-02 05:41:00,42.5,39.5,24.74,WSW,253,0.0,0.0,89,0.01,,---,0.01,VWS V13.01,2013-02-02 13:41:00,
2013-02-02 05:46:00,42.4,39.4,24.74,WSW,254,0.0,0.0,89,0.01,,---,0.01,VWS V13.01,2013-02-02 13:46:00,
2013-02-02 05:51:00,42.3,39.3,24.73,WSW,254,0.0,0.0,89,0.01,,---,0.01,VWS V13.01,2013-02-02 13:51:00,
2013-02-02 05:56:00,42.2,39.2,24.72,WSW,254,0.0,0.0,89,0.01,,---,0.01,VWS V13.01,2013-02-02 13:56:00,
2013-02-02 06:01:00,42.2,39.2,24.72,WSW,253,0.0,0.0,89,0.01,,---,0.01,VWS V13.01,2013-02-02 14:01:00,
2013-02-02 06:06:00,42.1,39.1,24.72,WSW,254,0.0,0.0,89,0.00,,---,0.01,VWS V13.01,2013-02-02 14:06:00,
2013-02-02 06:11:00,42.1,39.4,24.75,WSW,254,0.0,0.0,90,0.00,,---,0.01,VWS V13.01,2013-02-02 14:11:00,
2013-02-02 06:16:00,42.1,39.4,24.73,WSW,253,0.0,0.0,90,0.00,,---,0.01,VWS V13.01,2013-02-02 14:16:00,
2013-02-02 06:21:00,42.0,39.3,24.72,WSW,253,0.0,0.0,90,0.00,,---,0.01,VWS V13.01,2013-02-02 14:21:00,
2013-02-02 06:26:00,42.1,39.4,24.71,WSW,253,0.0,0.0,90,0.00,,---,0.01,VWS V13.01,2013-02-02 14:26:00,
2013-02-02 06:31:00,42.0,39.3,24.71,WSW,254,0.0,0.0,90,0.00,,---,0.01,VWS V13.01,2013-02-02 14:31:00,
2013-02-02 06:36:00,42.0,39.3,24.71,WSW,254,0.0,0.0,90,0.00,,---,0.01,VWS V13.01,2013-02-02 14:36:00,
2013-02-02 06:41:00,42.0,39.3,24.71,WSW,254,0.0,0.0,90,0.00,,---,0.01,VWS V13.01,2013-02-02 14:41:00,
2013-02-02 06:46:00,42.0,39.3,24.70,WSW,253,0.0,0.0,90,0.00,,---,0.01,VWS V13.01,2013-02-02 14:46:00,
2013-02-02 06:51:00,42.0,39.3,24.71,WSW,254,0.0,0.0,90,0.00,,---,0.01,VWS V13.01,2013-02-02 14:51:00,
2013-02-02 06:56:00,42.0,39.3,24.70,WSW,254,0.0,0.0,90,0.00,,---,0.01,VWS V13.01,2013-02-02 14:56:00,
2013-02-02 07:01:00,42.0,39.3,24.70,WSW,254,0.0,0.0,90,0.00,,---,0.01,VWS V13.01,2013-02-02 15:01:00,
2013-02-02 07:06:00,42.3,39.6,24.70,WSW,253,0.0,0.0,90,0.00,,---,0.01,VWS V13.01,2013-02-02 15:06:00,
2013-02-02 07:11:00,42.2,39.5,24.70,WSW,254,0.0,0.0,90,0.00,,---,0.01,VWS V13.01,2013-02-02 15:11:00,
2013-02-02 07:16:00,42.2,39.5,24.70,WSW,254,0.0,0.0,90,0.00,,---,0.01,VWS V13.01,2013-02-02 15:16:00,
2013-02-02 07:21:00,42.1,39.4,24.70,WSW,253,0.0,0.0,90,0.00,,---,0.01,VWS V13.01,2013-02-02 15:21:00,
2013-02-02 07:26:00,42.1,39.4,24.70,WSW,253,0.0,0.0,90,0.00,,---,0.01,VWS V13.01,2013-02-02 15:26:00,
2013-02-02 07:31:00,42.2,39.5,24.70,WSW,253,0.0,0.0,90,0.00,,---,0.01,VWS V13.01,2013-02-02 15:31:00,
2013-02-02 07:36:00,42.1,39.4,24.69,WSW,254,0.0,0.0,90,0.00,,---,0.01,VWS V13.01,2013-02-02 15:36:00,
2013-02-02 07:41:00,42.2,39.5,24.69,WSW,254,0.0,0.0,90,0.00,,---,0.01,VWS V13.01,2013-02-02 15:41:00,
2013-02-02 07:46:00,42.2,39.5,24.69,WSW,254,0.0,0.0,90,0.00,,---,0.01,VWS V13.01,2013-02-02 15:46:00,
2013-02-02 07:51:00,42.2,39.5,24.69,WSW,254,0.0,0.0,90,0.00,,---,0.01,VWS V13.01,2013-02-02 15:51:00,
2013-02-02 07:56:00,42.3,39.6,24.69,WSW,254,0.0,0.0,90,0.00,,---,0.01,VWS V13.01,2013-02-02 15:56:00,
2013-02-02 08:00:00,42.4,39.7,24.69,WSW,254,0.0,0.0,90,0.00,,---,0.01,VWS V13.01,2013-02-02 16:00:00,
2013-02-02 08:05:00,42.6,39.9,24.69,WSW,254,0.0,0.0,90,0.00,,---,0.01,VWS V13.01,2013-02-02 16:05:00,
2013-02-02 08:10:00,42.7,40.0,24.69,WSW,254,0.0,0.0,90,0.00,,---,0.01,VWS V13.01,2013-02-02 16:10:00,
2013-02-02 08:15:00,43.0,40.3,24.69,WSW,253,0.0,0.0,90,0.00,,---,0.01,VWS V13.01,2013-02-02 16:15:00,
2013-02-02 08:20:00,43.2,40.8,24.69,WSW,254,0.0,0.0,91,0.00,,---,0.01,VWS V13.01,2013-02-02 16:20:00,
2013-02-02 08:25:00,43.4,41.0,24.69,WSW,253,0.0,0.0,91,0.00,,---,0.01,VWS V13.01,2013-02-02 16:25:00,
2013-02-02 08:30:00,43.6,40.9,24.69,WSW,253,0.0,0.0,90,0.00,,---,0.01,VWS V13.01,2013-02-02 16:30:00,
2013-02-02 08:35:00,43.9,41.5,24.69,WSW,254,0.0,0.0,91,0.00,,---,0.01,VWS V13.01,2013-02-02 16:35:00,
2013-02-02 08:40:00,44.2,41.7,24.69,WSW,254,0.0,0.0,91,0.00,,---,0.01,VWS V13.01,2013-02-02 16:40:00,
2013-02-02 08:45:00,44.4,41.9,24.69,WSW,254,0.0,0.0,91,0.00,,---,0.01,VWS V13.01,2013-02-02 16:45:00,
2013-02-02 08:50:00,44.7,42.2,24.69,WSW,254,0.0,0.0,91,0.00,,---,0.01,VWS V13.01,2013-02-02 16:50:00,
2013-02-02 08:55:00,45.0,42.5,24.69,WSW,253,0.0,0.0,91,0.00,,---,0.01,VWS V13.01,2013-02-02 16:55:00,
2013-02-02 09:00:00,45.2,42.7,24.69,WSW,254,0.0,0.0,91,0.00,,---,0.01,VWS V13.01,2013-02-02 17:00:00,
2013-02-02 09:05:00,45.5,42.7,24.69,WSW,254,0.0,0.0,90,0.00,,---,0.01,VWS V13.01,2013-02-02 17:05:00,
2013-02-02 09:10:00,45.8,43.0,24.69,WSW,254,0.0,0.0,90,0.00,,---,0.01,VWS V13.01,2013-02-02 17:10:00,
2013-02-02 09:15:00,45.9,43.1,24.69,WSW,253,0.0,0.0,90,0.00,,---,0.01,VWS V13.01,2013-02-02 17:15:00,
2013-02-02 09:20:00,46.1,43.3,24.69,WSW,253,0.0,0.0,90,0.00,,---,0.01,VWS V13.01,2013-02-02 17:20:00,
2013-02-02 09:25:00,46.4,43.6,24.69,WSW,254,0.0,0.0,90,0.00,,---,0.01,VWS V13.01,2013-02-02 17:25:00,
2013-02-02 09:30:00,46.6,43.8,24.69,WSW,254,0.0,1.0,90,0.00,,---,0.01,VWS V13.01,2013-02-02 17:30:00,
2013-02-02 09:35:00,46.8,44.0,24.69,WSW,253,0.0,1.0,90,0.00,,---,0.01,VWS V13.01,2013-02-02 17:35:00,
2013-02-02 09:40:00,47.0,44.2,24.69,WSW,254,0.0,1.0,90,0.00,,---,0.01,VWS V13.01,2013-02-02 17:40:00,
2013-02-02 09:45:00,47.0,43.9,24.69,WSW,254,0.0,1.0,89,0.00,,---,0.01,VWS V13.01,2013-02-02 17:45:00,
2013-02-02 09:50:00,47.1,44.0,24.69,WSW,254,0.0,1.0,89,0.00,,---,0.01,VWS V13.01,2013-02-02 17:50:00,
2013-02-02 09:55:00,47.0,43.9,24.69,WSW,254,0.0,2.0,89,0.00,,---,0.01,VWS V13.01,2013-02-02 17:55:00,
2013-02-02 10:00:00,46.9,43.5,24.69,WSW,253,0.0,4.0,88,0.00,,---,0.01,VWS V13.01,2013-02-02 18:00:00,
2013-02-02 10:05:00,47.1,43.7,24.69,WSW,253,0.0,1.0,88,0.00,,---,0.01,VWS V13.01,2013-02-02 18:05:00,
2013-02-02 10:10:00,47.3,43.9,24.69,WSW,248,4.0,5.0,88,0.00,,---,0.01,VWS V13.01,2013-02-02 18:10:00,
2013-02-02 10:15:00,47.6,44.2,24.69,East,92,3.0,5.0,88,0.00,,---,0.01,VWS V13.01,2013-02-02 18:15:00,
2013-02-02 10:20:00,47.8,44.1,24.69,East,89,2.0,5.0,87,0.00,,---,0.01,VWS V13.01,2013-02-02 18:20:00,
2013-02-02 10:25:00,48.1,44.4,24.70,East,80,4.0,5.0,87,0.00,,---,0.01,VWS V13.01,2013-02-02 18:25:00,
2013-02-02 10:30:00,48.6,44.9,24.70,ESE,110,0.0,5.0,87,0.00,,---,0.01,VWS V13.01,2013-02-02 18:30:00,
2013-02-02 10:35:00,49.1,45.4,24.69,East,88,5.0,6.0,87,0.00,,---,0.01,VWS V13.01,2013-02-02 18:35:00,
2013-02-02 10:40:00,49.5,45.5,24.70,ESE,102,0.0,6.0,86,0.00,,---,0.01,VWS V13.01,2013-02-02 18:40:00,
2013-02-02 10:45:00,49.8,45.8,24.70,ESE,102,0.0,6.0,86,0.00,,---,0.01,VWS V13.01,2013-02-02 18:45:00,
2013-02-02 10:50:00,50.3,46.0,24.69,ESE,102,0.0,6.0,85,0.00,,---,0.01,VWS V13.01,2013-02-02 18:50:00,
2013-02-02 10:55:00,50.7,46.4,24.70,ESE,102,1.0,6.0,85,0.00,,---,0.01,VWS V13.01,2013-02-02 18:55:00,
2013-02-02 11:00:00,51.2,46.8,24.70,ESE,102,1.0,6.0,85,0.00,,---,0.01,VWS V13.01,2013-02-02 19:00:00,
2013-02-02 11:05:00,51.6,46.9,24.70,ESE,103,0.0,5.0,84,0.00,,---,0.01,VWS V13.01,2013-02-02 19:05:00,
2013-02-02 11:10:00,52.1,47.1,24.70,ESE,102,3.0,5.0,83,0.00,,---,0.01,VWS V13.01,2013-02-02 19:10:00,
2013-02-02 11:15:00,52.6,47.6,24.71,ESE,102,1.0,5.0,83,0.00,,---,0.01,VWS V13.01,2013-02-02 19:15:00,
2013-02-02 11:20:00,53.1,47.8,24.71,ESE,103,0.0,5.0,82,0.00,,---,0.01,VWS V13.01,2013-02-02 19:20:00,
2013-02-02 11:25:00,53.6,47.9,24.72,ESE,103,0.0,5.0,81,0.00,,---,0.01,VWS V13.01,2013-02-02 19:25:00,
2013-02-02 11:30:00,54.1,48.1,24.72,ESE,103,0.0,5.0,80,0.00,,---,0.01,VWS V13.01,2013-02-02 19:30:00,
2013-02-02 11:35:00,54.2,47.8,24.72,ESE,102,1.0,5.0,79,0.00,,---,0.01,VWS V13.01,2013-02-02 19:35:00,
2013-02-02 11:40:00,54.3,47.9,24.72,ESE,103,2.0,5.0,79,0.00,,---,0.01,VWS V13.01,2013-02-02 19:40:00,
2013-02-02 11:45:00,54.5,48.1,24.73,ESE,103,1.0,5.0,79,0.00,,---,0.01,VWS V13.01,2013-02-02 19:45:00,
2013-02-02 11:50:00,54.9,48.5,24.74,ESE,103,0.0,5.0,79,0.00,,---,0.01,VWS V13.01,2013-02-02 19:50:00,
2013-02-02 11:55:00,54.9,48.2,24.74,ESE,102,3.0,5.0,78,0.00,,---,0.01,VWS V13.01,2013-02-02 19:55:00,
2013-02-02 12:00:00,54.9,48.5,24.75,ESE,103,0.0,5.0,79,0.00,,---,0.01,VWS V13.01,2013-02-02 20:00:00,
2013-02-02 12:05:00,55.1,48.7,24.75,ESE,103,2.0,3.0,79,0.00,,---,0.01,VWS V13.01,2013-02-02 20:05:00,
2013-02-02 12:10:00,55.3,48.6,24.72,ESE,102,1.0,3.0,78,0.00,,---,0.01,VWS V13.01,2013-02-02 20:10:00,
2013-02-02 12:15:00,55.5,48.4,24.75,ESE,102,0.0,3.0,77,0.00,,---,0.01,VWS V13.01,2013-02-02 20:15:00,
2013-02-02 12:20:00,55.9,49.5,24.75,ESE,103,1.0,3.0,79,0.00,,---,0.01,VWS V13.01,2013-02-02 20:20:00,
2013-02-02 12:25:00,56.1,49.0,24.75,ESE,103,1.0,3.0,77,0.00,,---,0.01,VWS V13.01,2013-02-02 20:25:00,
2013-02-02 12:30:00,56.2,48.8,24.75,ESE,103,1.0,3.0,76,0.00,,---,0.01,VWS V13.01,2013-02-02 20:30:00,
2013-02-02 12:35:00,56.3,48.8,24.76,ESE,103,0.0,4.0,76,0.00,,---,0.01,VWS V13.01,2013-02-02 20:35:00,
2013-02-02 12:40:00,56.5,49.4,24.75,ESE,103,0.0,4.0,77,0.00,,---,0.01,VWS V13.01,2013-02-02 20:40:00,
2013-02-02 12:45:00,56.8,49.3,24.74,ESE,103,0.0,4.0,76,0.00,,---,0.01,VWS V13.01,2013-02-02 20:45:00,
2013-02-02 12:50:00,56.9,49.8,24.74,ESE,103,2.0,4.0,77,0.00,,---,0.01,VWS V13.01,2013-02-02 20:50:00,
2013-02-02 12:55:00,57.0,49.9,24.74,ESE,103,1.0,4.0,77,0.00,,---,0.01,VWS V13.01,2013-02-02 20:55:00,
2013-02-02 13:00:00,57.1,49.6,24.74,ESE,105,2.0,5.0,76,0.00,,---,0.01,VWS V13.01,2013-02-02 21:00:00,
2013-02-02 13:05:00,57.3,49.5,24.75,ESE,105,0.0,3.0,75,0.00,,---,0.01,VWS V13.01,2013-02-02 21:05:00,
2013-02-02 13:10:00,57.6,49.8,24.77,ESE,102,0.0,3.0,75,0.00,,---,0.01,VWS V13.01,2013-02-02 21:10:00,
2013-02-02 13:15:00,57.7,49.5,24.79,East,100,0.0,3.0,74,0.00,,---,0.01,VWS V13.01,2013-02-02 21:15:00,
2013-02-02 13:20:00,58.1,49.5,24.76,East,99,1.0,3.0,73,0.00,,---,0.01,VWS V13.01,2013-02-02 21:20:00,
2013-02-02 13:25:00,58.3,49.7,24.67,East,81,0.0,3.0,73,0.00,,---,0.01,VWS V13.01,2013-02-02 21:25:00,
2013-02-02 13:30:00,58.6,50.0,24.60,East,80,1.0,3.0,73,0.00,,---,0.01,VWS V13.01,2013-02-02 21:30:00,
2013-02-02 13:35:00,58.7,49.3,24.64,East,84,1.0,4.0,71,0.00,,---,0.01,VWS V13.01,2013-02-02 21:35:00,
2013-02-02 13:40:00,58.9,49.5,24.70,East,84,2.0,4.0,71,0.00,,---,0.01,VWS V13.01,2013-02-02 21:40:00,
2013-02-02 13:45:00,59.0,49.2,24.71,East,84,0.0,4.0,70,0.00,,---,0.01,VWS V13.01,2013-02-02 21:45:00,
2013-02-02 13:50:00,59.3,49.1,24.74,East,84,1.0,4.0,69,0.00,,---,0.01,VWS V13.01,2013-02-02 21:50:00,
2013-02-02 13:55:00,59.4,48.5,24.80,ENE,76,3.0,5.0,67,0.00,,---,0.01,VWS V13.01,2013-02-02 21:55:00,
2013-02-02 14:00:00,59.4,48.0,24.80,ENE,76,5.0,6.0,66,0.00,,---,0.01,VWS V13.01,2013-02-02 22:00:00,
2013-02-02 14:05:00,59.6,49.0,24.80,ENE,73,1.0,3.0,68,0.00,,---,0.01,VWS V13.01,2013-02-02 22:05:00,
2013-02-02 14:10:00,59.9,48.5,24.80,East,82,2.0,6.0,66,0.00,,---,0.01,VWS V13.01,2013-02-02 22:10:00,
2013-02-02 14:15:00,59.9,47.7,24.80,East,92,1.0,6.0,64,0.00,,---,0.01,VWS V13.01,2013-02-02 22:15:00,
2013-02-02 14:20:00,60.0,48.6,24.80,East,92,2.0,6.0,66,0.00,,---,0.01,VWS V13.01,2013-02-02 22:20:00,
2013-02-02 14:25:00,60.2,48.4,24.80,SE,144,0.0,6.0,65,0.00,,---,0.01,VWS V13.01,2013-02-02 22:25:00,
2013-02-02 14:30:00,60.7,48.0,24.80,ESE,113,1.0,6.0,63,0.00,,---,0.01,VWS V13.01,2013-02-02 22:30:00,
2013-02-02 14:35:00,60.7,47.6,24.80,ESE,109,4.0,6.0,62,0.00,,---,0.01,VWS V13.01,2013-02-02 22:35:00,
2013-02-02 14:40:00,60.3,47.2,24.80,ESE,104,3.0,7.0,62,0.00,,---,0.01,VWS V13.01,2013-02-02 22:40:00,
2013-02-02 14:45:00,59.9,47.7,24.80,East,98,2.0,7.0,64,0.00,,---,0.01,VWS V13.01,2013-02-02 22:45:00,
2013-02-02 14:50:00,59.8,47.6,24.80,East,98,3.0,7.0,64,0.00,,---,0.01,VWS V13.01,2013-02-02 22:50:00,
2013-02-02 14:55:00,59.6,47.8,24.80,East,99,0.0,7.0,65,0.00,,---,0.01,VWS V13.01,2013-02-02 22:55:00,
2013-02-02 15:00:00,59.9,48.1,24.80,ESE,116,0.0,7.0,65,0.00,,---,0.01,VWS V13.01,2013-02-02 23:00:00,
2013-02-02 15:05:00,60.4,47.8,24.80,ESE,117,0.0,2.0,63,0.00,,---,0.01,VWS V13.01,2013-02-02 23:05:00,
2013-02-02 15:10:00,60.9,48.2,24.80,ESE,121,0.0,4.0,63,0.00,,---,0.01,VWS V13.01,2013-02-02 23:10:00,
2013-02-02 15:15:00,61.3,48.6,24.80,ESE,121,0.0,4.0,63,0.00,,---,0.01,VWS V13.01,2013-02-02 23:15:00,
2013-02-02 15:20:00,62.0,48.8,24.80,ESE,121,1.0,4.0,62,0.00,,---,0.01,VWS V13.01,2013-02-02 23:20:00,
2013-02-02 15:25:00,62.9,48.8,24.80,ESE,121,0.0,4.0,60,0.00,,---,0.01,VWS V13.01,2013-02-02 23:25:00,
2013-02-02 15:30:00,63.8,49.2,24.80,ESE,121,0.0,4.0,59,0.00,,---,0.01,VWS V13.01,2013-02-02 23:30:00,
2013-02-02 15:35:00,64.5,49.4,24.80,ESE,121,0.0,4.0,58,0.00,,---,0.01,VWS V13.01,2013-02-02 23:35:00,
2013-02-02 15:40:00,65.3,49.2,24.80,ESE,121,0.0,4.0,56,0.00,,---,0.01,VWS V13.01,2013-02-02 23:40:00,
2013-02-02 15:45:00,65.5,48.9,24.80,ESE,121,0.0,4.0,55,0.00,,---,0.01,VWS V13.01,2013-02-02 23:45:00,
2013-02-02 15:50:00,66.0,49.4,24.80,ESE,121,1.0,4.0,55,0.00,,---,0.01,VWS V13.01,2013-02-02 23:50:00,
2013-02-02 15:55:00,66.0,49.4,24.80,ESE,114,1.0,4.0,55,0.00,,---,0.01,VWS V13.01,2013-02-02 23:55:00,
2013-02-02 16:00:00,64.7,49.1,24.80,ESE,114,0.0,4.0,57,0.00,,---,0.01,VWS V13.01,2013-02-03 00:00:00,
2013-02-02 16:05:00,64.2,49.1,24.80,ESE,114,1.0,2.0,58,0.00,,---,0.01,VWS V13.01,2013-02-03 00:05:00,
2013-02-02 16:10:00,63.7,49.6,24.80,SE,132,0.0,4.0,60,0.00,,---,0.01,VWS V13.01,2013-02-03 00:10:00,
2013-02-02 16:15:00,63.7,50.0,24.80,SSE,152,0.0,4.0,61,0.00,,---,0.01,VWS V13.01,2013-02-03 00:15:00,
2013-02-02 16:20:00,63.8,50.1,24.80,SSW,207,0.0,5.0,61,0.00,,---,0.01,VWS V13.01,2013-02-03 00:20:00,
2013-02-02 16:25:00,63.3,49.6,24.80,SSW,210,1.0,5.0,61,0.00,,---,0.01,VWS V13.01,2013-02-03 00:25:00,
2013-02-02 16:30:00,63.1,49.9,24.80,SSW,210,0.0,5.0,62,0.00,,---,0.01,VWS V13.01,2013-02-03 00:30:00,
2013-02-02 16:35:00,62.8,49.6,24.80,South,186,0.0,5.0,62,0.00,,---,0.01,VWS V13.01,2013-02-03 00:35:00,
2013-02-02 16:40:00,62.4,49.7,24.80,South,186,0.0,5.0,63,0.00,,---,0.01,VWS V13.01,2013-02-03 00:40:00,
2013-02-02 16:45:00,61.9,49.2,24.80,South,187,0.0,5.0,63,0.00,,---,0.01,VWS V13.01,2013-02-03 00:45:00,
2013-02-02 16:50:00,61.2,48.9,24.80,South,188,2.0,5.0,64,0.00,,---,0.01,VWS V13.01,2013-02-03 00:50:00,
2013-02-02 16:55:00,60.5,49.1,24.80,SSW,193,0.0,5.0,66,0.00,,---,0.01,VWS V13.01,2013-02-03 00:55:00,
2013-02-02 17:00:00,60.2,49.2,24.80,South,191,0.0,5.0,67,0.00,,---,0.01,VWS V13.01,2013-02-03 01:00:00,
2013-02-02 17:05:00,60.1,49.1,24.80,South,190,0.0,2.0,67,0.00,,---,0.01,VWS V13.01,2013-02-03 01:05:00,
2013-02-02 17:10:00,60.2,49.6,24.80,South,190,0.0,2.0,68,0.00,,---,0.01,VWS V13.01,2013-02-03 01:10:00,
2013-02-02 17:15:00,60.0,49.4,24.80,South,190,0.0,2.0,68,0.00,,---,0.01,VWS V13.01,2013-02-03 01:15:00,
2013-02-02 17:20:00,59.6,49.0,24.80,South,190,0.0,2.0,68,0.00,,---,0.01,VWS V13.01,2013-02-03 01:20:00,
2013-02-02 17:25:00,59.0,49.2,24.80,SSW,197,3.0,4.0,70,0.00,,---,0.01,VWS V13.01,2013-02-03 01:25:00,
2013-02-02 17:30:00,58.1,48.8,24.80,SSW,210,1.0,5.0,71,0.00,,---,0.01,VWS V13.01,2013-02-03 01:30:00,
2013-02-02 17:35:00,57.3,48.4,24.80,SW,215,0.0,5.0,72,0.00,,---,0.01,VWS V13.01,2013-02-03 01:35:00,
2013-02-02 17:40:00,56.6,48.4,24.80,SW,221,0.0,5.0,74,0.00,,---,0.01,VWS V13.01,2013-02-03 01:40:00,
2013-02-02 17:45:00,56.0,47.8,24.80,SW,222,0.0,5.0,74,0.00,,---,0.01,VWS V13.01,2013-02-03 01:45:00,
2013-02-02 17:50:00,55.4,47.6,24.80,SW,224,0.0,5.0,75,0.00,,---,0.01,VWS V13.01,2013-02-03 01:50:00,
2013-02-02 17:55:00,54.8,47.0,24.80,SW,232,1.0,5.0,75,0.00,,---,0.01,VWS V13.01,2013-02-03 01:55:00,
2013-02-02 18:00:00,54.2,46.8,24.80,SW,232,2.0,5.0,76,0.00,,---,0.01,VWS V13.01,2013-02-03 02:00:00,
2013-02-02 18:05:00,53.8,46.8,24.80,SW,232,2.0,3.0,77,0.00,,---,0.01,VWS V13.01,2013-02-03 02:05:00,
2013-02-02 18:10:00,53.3,46.6,24.80,SW,232,0.0,3.0,78,0.00,,---,0.01,VWS V13.01,2013-02-03 02:10:00,
2013-02-02 18:15:00,53.0,46.3,24.80,WSW,257,2.0,5.0,78,0.00,,---,0.01,VWS V13.01,2013-02-03 02:15:00,
2013-02-02 18:20:00,52.6,46.3,24.80,WSW,254,0.0,5.0,79,0.00,,---,0.01,VWS V13.01,2013-02-03 02:20:00,
2013-02-02 18:25:00,52.3,46.0,24.80,WNW,284,0.0,6.0,79,0.00,,---,0.01,VWS V13.01,2013-02-03 02:25:00,
2013-02-02 18:30:00,52.1,46.1,24.80,WNW,298,3.0,6.0,80,0.00,,---,0.01,VWS V13.01,2013-02-03 02:30:00,
2013-02-02 18:35:00,51.9,45.9,24.80,West,268,0.0,6.0,80,0.00,,---,0.01,VWS V13.01,2013-02-03 02:35:00,
2013-02-02 18:40:00,51.8,46.2,24.80,West,268,0.0,6.0,81,0.00,,---,0.01,VWS V13.01,2013-02-03 02:40:00,
2013-02-02 18:45:00,51.7,46.1,24.80,West,272,1.0,6.0,81,0.00,,---,0.01,VWS V13.01,2013-02-03 02:45:00,
2013-02-02 18:50:00,51.6,46.0,24.80,West,275,5.0,6.0,81,0.00,,---,0.01,VWS V13.01,2013-02-03 02:50:00,
2013-02-02 18:55:00,51.4,45.8,24.80,West,279,0.0,6.0,81,0.00,,---,0.01,VWS V13.01,2013-02-03 02:55:00,
2013-02-02 19:00:00,51.4,45.8,24.80,West,279,0.0,6.0,81,0.00,,---,0.01,VWS V13.01,2013-02-03 03:00:00,
2013-02-02 19:05:00,51.3,45.7,24.80,West,279,0.0,0.0,81,0.00,,---,0.01,VWS V13.01,2013-02-03 03:05:00,
2013-02-02 19:10:00,51.2,45.6,24.80,West,279,0.0,0.0,81,0.00,,---,0.01,VWS V13.01,2013-02-03 03:10:00,
2013-02-02 19:15:00,51.0,45.4,24.80,West,279,0.0,0.0,81,0.00,,---,0.01,VWS V13.01,2013-02-03 03:15:00,
2013-02-02 19:20:00,50.9,45.6,24.80,West,279,0.0,0.0,82,0.00,,---,0.01,VWS V13.01,2013-02-03 03:20:00,
2013-02-02 19:25:00,50.7,45.4,24.80,West,279,0.0,0.0,82,0.00,,---,0.01,VWS V13.01,2013-02-03 03:25:00,
2013-02-02 19:30:00,50.5,45.2,24.80,West,279,0.0,1.0,82,0.00,,---,0.01,VWS V13.01,2013-02-03 03:30:00,
2013-02-02 19:35:00,50.2,44.9,24.80,West,279,0.0,1.0,82,0.00,,---,0.01,VWS V13.01,2013-02-03 03:35:00,
2013-02-02 19:40:00,50.0,44.7,24.80,West,279,0.0,1.0,82,0.00,,---,0.01,VWS V13.01,2013-02-03 03:40:00,
2013-02-02 19:45:00,49.7,44.8,24.80,West,279,0.0,1.0,83,0.00,,---,0.01,VWS V13.01,2013-02-03 03:45:00,
2013-02-02 19:50:00,49.5,44.6,24.80,West,279,0.0,1.0,83,0.00,,---,0.01,VWS V13.01,2013-02-03 03:50:00,
2013-02-02 19:55:00,49.2,44.6,24.80,West,279,0.0,1.0,84,0.00,,---,0.01,VWS V13.01,2013-02-03 03:55:00,
2013-02-02 20:00:00,49.0,44.4,24.80,West,279,0.0,3.0,84,0.00,,---,0.01,VWS V13.01,2013-02-03 04:00:00,
2013-02-02 20:05:00,48.8,44.5,24.80,West,279,0.0,0.0,85,0.00,,---,0.01,VWS V13.01,2013-02-03 04:05:00,
2013-02-02 20:10:00,48.7,44.4,24.80,West,279,0.0,0.0,85,0.00,,---,0.01,VWS V13.01,2013-02-03 04:10:00,
2013-02-02 20:15:00,48.7,44.4,24.80,West,279,0.0,0.0,85,0.00,,---,0.01,VWS V13.01,2013-02-03 04:15:00,
2013-02-02 20:20:00,48.5,44.2,24.80,West,279,0.0,0.0,85,0.00,,---,0.01,VWS V13.01,2013-02-03 04:20:00,
2013-02-02 20:25:00,48.3,44.0,24.80,West,279,0.0,0.0,85,0.00,,---,0.01,VWS V13.01,2013-02-03 04:25:00,
2013-02-02 20:30:00,48.3,44.0,24.80,West,279,0.0,0.0,85,0.00,,---,0.01,VWS V13.01,2013-02-03 04:30:00,
2013-02-02 20:35:00,48.1,43.8,24.80,West,279,0.0,0.0,85,0.00,,---,0.01,VWS V13.01,2013-02-03 04:35:00,
2013-02-02 20:40:00,47.9,43.6,24.80,West,279,0.0,0.0,85,0.00,,---,0.01,VWS V13.01,2013-02-03 04:40:00,
2013-02-02 20:45:00,47.8,43.5,24.80,West,279,0.0,1.0,85,0.00,,---,0.01,VWS V13.01,2013-02-03 04:45:00,
2013-02-02 20:50:00,47.7,43.4,24.80,West,279,0.0,1.0,85,0.00,,---,0.01,VWS V13.01,2013-02-03 04:50:00,
2013-02-02 20:55:00,47.6,43.6,24.80,West,278,0.0,2.0,86,0.00,,---,0.01,VWS V13.01,2013-02-03 04:55:00,
2013-02-02 21:00:00,47.6,43.6,24.80,West,278,0.0,2.0,86,0.00,,---,0.01,VWS V13.01,2013-02-03 05:00:00,
2013-02-02 21:03:00,47.5,43.5,24.80,West,278,0.0,0.0,86,0.00,,---,0.01,VWS V13.01,2013-02-03 05:03:00,
2013-02-02 21:08:00,47.4,43.4,24.80,West,278,0.0,0.0,86,0.00,,---,0.01,VWS V13.01,2013-02-03 05:08:00,
2013-02-02 21:13:00,47.3,43.3,24.80,West,278,0.0,1.0,86,0.00,,---,0.01,VWS V13.01,2013-02-03 05:13:00,
2013-02-02 21:18:00,47.2,43.2,24.80,West,277,0.0,1.0,86,0.00,,---,0.01,VWS V13.01,2013-02-03 05:18:00,
2013-02-02 21:23:00,47.1,43.1,24.80,West,277,0.0,2.0,86,0.00,,---,0.01,VWS V13.01,2013-02-03 05:23:00,
2013-02-02 21:28:00,47.2,43.2,24.80,SSW,198,0.0,2.0,86,0.00,,---,0.01,VWS V13.01,2013-02-03 05:28:00,
2013-02-02 21:33:00,47.2,43.2,24.80,SSW,198,0.0,2.0,86,0.00,,---,0.01,VWS V13.01,2013-02-03 05:33:00,
2013-02-02 21:38:00,47.2,43.2,24.80,SSW,198,0.0,2.0,86,0.00,,---,0.01,VWS V13.01,2013-02-03 05:38:00,
2013-02-02 21:43:00,47.2,43.2,24.80,SSW,198,0.0,2.0,86,0.00,,---,0.01,VWS V13.01,2013-02-03 05:43:00,
2013-02-02 21:48:00,47.1,43.1,24.79,SSW,198,0.0,2.0,86,0.00,,---,0.01,VWS V13.01,2013-02-03 05:48:00,
2013-02-02 21:53:00,47.0,43.0,24.79,SSW,198,0.0,2.0,86,0.00,,---,0.01,VWS V13.01,2013-02-03 05:53:00,
2013-02-02 21:58:00,46.8,42.8,24.76,SSW,198,0.0,2.0,86,0.00,,---,0.01,VWS V13.01,2013-02-03 05:58:00,
2013-02-02 22:03:00,46.7,42.7,24.70,SSW,198,0.0,0.0,86,0.00,,---,0.01,VWS V13.01,2013-02-03 06:03:00,
2013-02-02 22:08:00,46.5,42.5,24.68,SSW,198,0.0,0.0,86,0.00,,---,0.01,VWS V13.01,2013-02-03 06:08:00,
2013-02-02 22:13:00,46.4,42.5,24.61,SSW,198,0.0,0.0,86,0.00,,---,0.01,VWS V13.01,2013-02-03 06:13:00,
2013-02-02 22:18:00,46.3,42.3,24.60,SSW,198,0.0,0.0,86,0.00,,---,0.01,VWS V13.01,2013-02-03 06:18:00,
2013-02-02 22:23:00,46.1,42.2,24.60,SSW,198,0.0,1.0,86,0.00,,---,0.01,VWS V13.01,2013-02-03 06:23:00,
2013-02-02 22:28:00,46.0,42.0,24.65,SSW,198,0.0,1.0,86,0.00,,---,0.01,VWS V13.01,2013-02-03 06:28:00,
2013-02-02 22:33:00,45.9,42.0,24.65,SSW,198,0.0,1.0,86,0.00,,---,0.01,VWS V13.01,2013-02-03 06:33:00,
2013-02-02 22:38:00,45.8,41.9,24.65,SSW,198,0.0,1.0,86,0.00,,---,0.01,VWS V13.01,2013-02-03 06:38:00,
2013-02-02 22:43:00,45.6,41.7,24.65,SSW,198,0.0,1.0,86,0.00,,---,0.01,VWS V13.01,2013-02-03 06:43:00,
2013-02-02 22:48:00,45.5,41.9,24.78,SSW,198,0.0,1.0,87,0.00,,---,0.01,VWS V13.01,2013-02-03 06:48:00,
2013-02-02 22:53:00,45.3,41.4,24.77,SSW,198,0.0,1.0,86,0.00,,---,0.01,VWS V13.01,2013-02-03 06:53:00,
2013-02-02 22:58:00,45.2,41.3,24.77,SSW,198,0.0,1.0,86,0.00,,---,0.01,VWS V13.01,2013-02-03 06:58:00,
2013-02-02 23:03:00,45.1,41.5,24.75,SSW,198,0.0,0.0,87,0.00,,---,0.01,VWS V13.01,2013-02-03 07:03:00,
2013-02-02 23:08:00,45.1,41.5,24.75,SSW,198,0.0,0.0,87,0.00,,---,0.01,VWS V13.01,2013-02-03 07:08:00,
2013-02-02 23:13:00,45.0,41.4,24.74,SSW,198,0.0,0.0,87,0.00,,---,0.01,VWS V13.01,2013-02-03 07:13:00,
2013-02-02 23:18:00,44.9,41.3,24.74,SSW,198,0.0,1.0,87,0.00,,---,0.01,VWS V13.01,2013-02-03 07:18:00,
2013-02-02 23:23:00,44.9,41.3,24.74,SSW,198,0.0,1.0,87,0.00,,---,0.01,VWS V13.01,2013-02-03 07:23:00,
2013-02-02 23:28:00,44.9,41.3,21.38,SSW,198,0.0,1.0,87,0.00,,---,0.01,VWS V13.01,2013-02-03 07:28:00,
2013-02-02 23:33:00,44.8,41.2,24.73,SSW,198,0.0,1.0,87,0.00,,---,0.01,VWS V13.01,2013-02-03 07:33:00,
2013-02-02 23:38:00,44.7,41.1,24.73,SSW,198,0.0,1.0,87,0.00,,---,0.01,VWS V13.01,2013-02-03 07:38:00,
2013-02-02 23:43:00,44.6,41.0,24.73,SSW,198,0.0,1.0,87,0.00,,---,0.01,VWS V13.01,2013-02-03 07:43:00,
2013-02-02 23:48:00,44.7,41.1,24.73,SSW,198,0.0,2.0,87,0.00,,---,0.01,VWS V13.01,2013-02-03 07:48:00,
2013-02-02 23:53:00,44.7,41.1,24.73,SSW,198,0.0,2.0,87,0.00,,---,0.01,VWS V13.01,2013-02-03 07:53:00,
2013-02-02 23:58:00,44.9,41.3,24.74,SSW,211,0.0,6.0,87,0.00,,---,0.01,VWS V13.01,2013-02-03 07:58:00,